sensor_id;sensor_type;location;lat;lon;timestamp;temperature;humidity
52203;DHT22;38173;52.850;6.970;2023-03-01T00:01:02;-2.10;99.90
52203;DHT22;38173;52.850;6.970;2023-03-01T00:03:28;-2.10;99.90
52203;DHT22;38173;52.850;6.970;2023-03-01T00:05:54;-2.10;99.90
52203;DHT22;38173;52.850;6.970;2023-03-01T00:08:19;-2.10;99.90
52203;DHT22;38173;52.850;6.970;2023-03-01T00:10:47;-2.10;99.90
52203;DHT22;38173;52.850;6.970;2023-03-01T00:13:15;-2.10;99.90
52203;DHT22;38173;52.850;6.970;2023-03-01T00:15:41;-2.20;99.90
52203;DHT22;38173;52.850;6.970;2023-03-01T00:18:07;-2.20;99.90
52203;DHT22;38173;52.850;6.970;2023-03-01T00:20:34;-2.30;99.90
52203;DHT22;38173;52.850;6.970;2023-03-01T00:23:00;-2.30;99.90
52203;DHT22;38173;52.850;6.970;2023-03-01T00:25:25;-2.30;99.90
52203;DHT22;38173;52.850;6.970;2023-03-01T00:27:51;-2.40;99.90
52203;DHT22;38173;52.850;6.970;2023-03-01T00:30:17;-2.50;99.90
52203;DHT22;38173;52.850;6.970;2023-03-01T00:32:46;-2.50;99.90
52203;DHT22;38173;52.850;6.970;2023-03-01T00:35:11;-2.60;99.90
52203;DHT22;38173;52.850;6.970;2023-03-01T00:37:37;-2.70;99.90
52203;DHT22;38173;52.850;6.970;2023-03-01T00:40:03;-2.70;99.90
52203;DHT22;38173;52.850;6.970;2023-03-01T00:42:31;-2.70;99.90
52203;DHT22;38173;52.850;6.970;2023-03-01T00:44:57;-2.70;99.90
52203;DHT22;38173;52.850;6.970;2023-03-01T00:47:23;-2.80;99.90
52203;DHT22;38173;52.850;6.970;2023-03-01T00:49:49;-2.80;99.90
52203;DHT22;38173;52.850;6.970;2023-03-01T00:52:15;-2.90;99.90
52203;DHT22;38173;52.850;6.970;2023-03-01T00:54:40;-2.90;99.90
52203;DHT22;38173;52.850;6.970;2023-03-01T00:57:08;-3.00;99.90
52203;DHT22;38173;52.850;6.970;2023-03-01T00:59:34;-3.00;99.90
52203;DHT22;38173;52.850;6.970;2023-03-01T01:02:00;-3.00;99.90
52203;DHT22;38173;52.850;6.970;2023-03-01T01:04:26;-3.00;99.90
52203;DHT22;38173;52.850;6.970;2023-03-01T01:06:51;-3.10;99.90
52203;DHT22;38173;52.850;6.970;2023-03-01T01:09:17;-3.10;99.90
52203;DHT22;38173;52.850;6.970;2023-03-01T01:11:44;-3.10;99.90
52203;DHT22;38173;52.850;6.970;2023-03-01T01:14:10;-3.10;99.90
52203;DHT22;38173;52.850;6.970;2023-03-01T01:16:35;-3.20;99.90
52203;DHT22;38173;52.850;6.970;2023-03-01T01:19:01;-3.20;99.90
52203;DHT22;38173;52.850;6.970;2023-03-01T01:21:27;-3.20;99.90
52203;DHT22;38173;52.850;6.970;2023-03-01T01:23:53;-3.20;99.90
52203;DHT22;38173;52.850;6.970;2023-03-01T01:26:23;-3.30;99.90
52203;DHT22;38173;52.850;6.970;2023-03-01T01:28:49;-3.30;99.90
52203;DHT22;38173;52.850;6.970;2023-03-01T01:31:15;-3.30;99.90
52203;DHT22;38173;52.850;6.970;2023-03-01T01:33:47;-3.30;99.90
52203;DHT22;38173;52.850;6.970;2023-03-01T01:36:15;-3.30;99.90
52203;DHT22;38173;52.850;6.970;2023-03-01T01:38:43;-3.30;99.90
52203;DHT22;38173;52.850;6.970;2023-03-01T01:41:11;-3.30;99.90
52203;DHT22;38173;52.850;6.970;2023-03-01T01:43:45;-3.30;99.90
52203;DHT22;38173;52.850;6.970;2023-03-01T01:48:42;-3.40;99.90
52203;DHT22;38173;52.850;6.970;2023-03-01T01:51:12;-3.40;99.90
52203;DHT22;38173;52.850;6.970;2023-03-01T01:53:39;-3.40;99.90
52203;DHT22;38173;52.850;6.970;2023-03-01T01:56:06;-3.30;99.90
52203;DHT22;38173;52.850;6.970;2023-03-01T01:58:33;-3.30;99.90
52203;DHT22;38173;52.850;6.970;2023-03-01T02:00:59;-3.30;99.90
52203;DHT22;38173;52.850;6.970;2023-03-01T02:03:27;-3.30;99.90
52203;DHT22;38173;52.850;6.970;2023-03-01T02:06:04;-3.30;99.90
52203;DHT22;38173;52.850;6.970;2023-03-01T02:08:31;-3.30;99.90
52203;DHT22;38173;52.850;6.970;2023-03-01T02:10:57;-3.30;99.90
52203;DHT22;38173;52.850;6.970;2023-03-01T02:13:25;-3.30;99.90
52203;DHT22;38173;52.850;6.970;2023-03-01T02:15:51;-3.30;99.90
52203;DHT22;38173;52.850;6.970;2023-03-01T02:18:18;-3.30;99.90
52203;DHT22;38173;52.850;6.970;2023-03-01T02:23:14;-3.30;99.90
52203;DHT22;38173;52.850;6.970;2023-03-01T02:30:41;-3.30;99.90
52203;DHT22;38173;52.850;6.970;2023-03-01T02:33:27;-3.30;99.90
52203;DHT22;38173;52.850;6.970;2023-03-01T02:35:53;-3.40;99.90
52203;DHT22;38173;52.850;6.970;2023-03-01T02:38:20;-3.40;99.90
52203;DHT22;38173;52.850;6.970;2023-03-01T02:40:46;-3.40;99.90
52203;DHT22;38173;52.850;6.970;2023-03-01T02:43:12;-3.40;99.90
52203;DHT22;38173;52.850;6.970;2023-03-01T02:45:48;-3.50;99.90
52203;DHT22;38173;52.850;6.970;2023-03-01T02:48:14;-3.50;99.90
52203;DHT22;38173;52.850;6.970;2023-03-01T02:55:46;-3.50;99.90
52203;DHT22;38173;52.850;6.970;2023-03-01T02:58:12;-3.50;99.90
52203;DHT22;38173;52.850;6.970;2023-03-01T03:00:39;-3.50;99.90
52203;DHT22;38173;52.850;6.970;2023-03-01T03:03:05;-3.50;99.90
52203;DHT22;38173;52.850;6.970;2023-03-01T03:05:31;-3.50;99.90
52203;DHT22;38173;52.850;6.970;2023-03-01T03:07:58;-3.50;99.90
52203;DHT22;38173;52.850;6.970;2023-03-01T03:10:25;-3.50;99.90
52203;DHT22;38173;52.850;6.970;2023-03-01T03:12:53;-3.50;99.90
52203;DHT22;38173;52.850;6.970;2023-03-01T03:15:20;-3.50;99.90
52203;DHT22;38173;52.850;6.970;2023-03-01T03:17:45;-3.50;99.90
52203;DHT22;38173;52.850;6.970;2023-03-01T03:20:12;-3.50;99.90
52203;DHT22;38173;52.850;6.970;2023-03-01T03:22:41;-3.50;99.90
52203;DHT22;38173;52.850;6.970;2023-03-01T03:25:07;-3.50;99.90
52203;DHT22;38173;52.850;6.970;2023-03-01T03:27:39;-3.50;99.90
52203;DHT22;38173;52.850;6.970;2023-03-01T03:30:05;-3.50;99.90
52203;DHT22;38173;52.850;6.970;2023-03-01T03:32:35;-3.60;99.90
52203;DHT22;38173;52.850;6.970;2023-03-01T03:35:01;-3.60;99.90
52203;DHT22;38173;52.850;6.970;2023-03-01T03:37:27;-3.50;99.90
52203;DHT22;38173;52.850;6.970;2023-03-01T03:40:11;-3.60;99.90
52203;DHT22;38173;52.850;6.970;2023-03-01T03:42:40;-3.50;99.90
52203;DHT22;38173;52.850;6.970;2023-03-01T03:45:06;-3.60;99.90
52203;DHT22;38173;52.850;6.970;2023-03-01T03:47:32;-3.60;99.90
52203;DHT22;38173;52.850;6.970;2023-03-01T03:49:58;-3.60;99.90
52203;DHT22;38173;52.850;6.970;2023-03-01T03:52:23;-3.60;99.90
52203;DHT22;38173;52.850;6.970;2023-03-01T03:54:49;-3.60;99.90
52203;DHT22;38173;52.850;6.970;2023-03-01T03:57:15;-3.70;99.90
52203;DHT22;38173;52.850;6.970;2023-03-01T03:59:41;-3.70;99.90
52203;DHT22;38173;52.850;6.970;2023-03-01T04:02:07;-3.70;99.90
52203;DHT22;38173;52.850;6.970;2023-03-01T04:04:34;-3.70;99.90
52203;DHT22;38173;52.850;6.970;2023-03-01T04:06:59;-3.70;99.90
52203;DHT22;38173;52.850;6.970;2023-03-01T04:09:25;-3.70;99.90
52203;DHT22;38173;52.850;6.970;2023-03-01T04:11:51;-3.70;99.90
52203;DHT22;38173;52.850;6.970;2023-03-01T04:14:19;-3.70;99.90
52203;DHT22;38173;52.850;6.970;2023-03-01T04:16:45;-3.70;99.90
52203;DHT22;38173;52.850;6.970;2023-03-01T04:19:10;-3.70;99.90
52203;DHT22;38173;52.850;6.970;2023-03-01T04:21:36;-3.70;99.90
52203;DHT22;38173;52.850;6.970;2023-03-01T04:24:02;-3.70;99.90
52203;DHT22;38173;52.850;6.970;2023-03-01T04:26:29;-3.70;99.90
52203;DHT22;38173;52.850;6.970;2023-03-01T04:28:54;-3.70;99.90
52203;DHT22;38173;52.850;6.970;2023-03-01T04:31:20;-3.70;99.90
52203;DHT22;38173;52.850;6.970;2023-03-01T04:33:47;-3.70;99.90
52203;DHT22;38173;52.850;6.970;2023-03-01T04:36:14;-3.70;99.90
52203;DHT22;38173;52.850;6.970;2023-03-01T04:38:41;-3.70;99.90
52203;DHT22;38173;52.850;6.970;2023-03-01T04:41:09;-3.80;99.90
52203;DHT22;38173;52.850;6.970;2023-03-01T04:43:36;-3.80;99.90
52203;DHT22;38173;52.850;6.970;2023-03-01T04:46:03;-3.80;99.90
52203;DHT22;38173;52.850;6.970;2023-03-01T04:48:30;-3.80;99.90
52203;DHT22;38173;52.850;6.970;2023-03-01T04:50:55;-3.80;99.90
52203;DHT22;38173;52.850;6.970;2023-03-01T04:53:21;-3.80;99.90
52203;DHT22;38173;52.850;6.970;2023-03-01T04:55:47;-3.80;99.90
52203;DHT22;38173;52.850;6.970;2023-03-01T04:58:12;-3.80;99.90
52203;DHT22;38173;52.850;6.970;2023-03-01T05:00:39;-3.80;99.90
52203;DHT22;38173;52.850;6.970;2023-03-01T05:03:05;-3.80;99.90
52203;DHT22;38173;52.850;6.970;2023-03-01T05:05:31;-3.80;99.90
52203;DHT22;38173;52.850;6.970;2023-03-01T05:07:59;-3.80;99.90
52203;DHT22;38173;52.850;6.970;2023-03-01T05:10:26;-3.80;99.90
52203;DHT22;38173;52.850;6.970;2023-03-01T05:12:52;-3.90;99.90
52203;DHT22;38173;52.850;6.970;2023-03-01T05:15:18;-3.90;99.90
52203;DHT22;38173;52.850;6.970;2023-03-01T05:17:44;-4.00;99.90
52203;DHT22;38173;52.850;6.970;2023-03-01T05:20:10;-3.90;99.90
52203;DHT22;38173;52.850;6.970;2023-03-01T05:22:36;-4.00;99.90
52203;DHT22;38173;52.850;6.970;2023-03-01T05:25:02;-4.00;99.90
52203;DHT22;38173;52.850;6.970;2023-03-01T05:27:27;-4.00;99.90
52203;DHT22;38173;52.850;6.970;2023-03-01T05:29:56;-4.00;99.90
52203;DHT22;38173;52.850;6.970;2023-03-01T05:32:21;-4.00;99.90
52203;DHT22;38173;52.850;6.970;2023-03-01T05:34:47;-4.00;99.90
52203;DHT22;38173;52.850;6.970;2023-03-01T05:37:14;-4.00;99.90
52203;DHT22;38173;52.850;6.970;2023-03-01T05:39:40;-4.00;99.90
52203;DHT22;38173;52.850;6.970;2023-03-01T05:42:09;-4.00;99.90
52203;DHT22;38173;52.850;6.970;2023-03-01T05:44:36;-4.10;99.90
52203;DHT22;38173;52.850;6.970;2023-03-01T05:47:01;-4.10;99.90
52203;DHT22;38173;52.850;6.970;2023-03-01T05:49:27;-4.10;99.90
52203;DHT22;38173;52.850;6.970;2023-03-01T05:51:53;-4.10;99.90
52203;DHT22;38173;52.850;6.970;2023-03-01T05:54:19;-4.20;99.90
52203;DHT22;38173;52.850;6.970;2023-03-01T05:56:45;-4.20;99.90
52203;DHT22;38173;52.850;6.970;2023-03-01T05:59:11;-4.20;99.90
52203;DHT22;38173;52.850;6.970;2023-03-01T06:01:36;-4.20;99.90
52203;DHT22;38173;52.850;6.970;2023-03-01T06:04:03;-4.20;99.90
52203;DHT22;38173;52.850;6.970;2023-03-01T06:06:29;-4.30;99.90
52203;DHT22;38173;52.850;6.970;2023-03-01T06:08:54;-4.30;99.90
52203;DHT22;38173;52.850;6.970;2023-03-01T06:11:20;-4.30;99.90
52203;DHT22;38173;52.850;6.970;2023-03-01T06:13:49;-4.30;99.90
52203;DHT22;38173;52.850;6.970;2023-03-01T06:16:15;-4.30;99.90
52203;DHT22;38173;52.850;6.970;2023-03-01T06:18:41;-4.30;99.90
52203;DHT22;38173;52.850;6.970;2023-03-01T06:21:07;-4.30;99.90
52203;DHT22;38173;52.850;6.970;2023-03-01T06:23:33;-4.30;99.90
52203;DHT22;38173;52.850;6.970;2023-03-01T06:25:59;-4.30;99.90
52203;DHT22;38173;52.850;6.970;2023-03-01T06:28:25;-4.30;99.90
52203;DHT22;38173;52.850;6.970;2023-03-01T06:30:51;-4.30;99.90
52203;DHT22;38173;52.850;6.970;2023-03-01T06:33:17;-4.30;99.90
52203;DHT22;38173;52.850;6.970;2023-03-01T06:35:45;-4.30;99.90
52203;DHT22;38173;52.850;6.970;2023-03-01T06:38:13;-4.30;99.90
52203;DHT22;38173;52.850;6.970;2023-03-01T06:40:44;-4.20;99.90
52203;DHT22;38173;52.850;6.970;2023-03-01T06:43:10;-4.20;99.90
52203;DHT22;38173;52.850;6.970;2023-03-01T06:45:36;-4.20;99.90
52203;DHT22;38173;52.850;6.970;2023-03-01T06:48:03;-4.20;99.90
52203;DHT22;38173;52.850;6.970;2023-03-01T06:50:29;-4.10;99.90
52203;DHT22;38173;52.850;6.970;2023-03-01T06:52:56;-4.10;99.90
52203;DHT22;38173;52.850;6.970;2023-03-01T06:55:22;-4.00;99.90
52203;DHT22;38173;52.850;6.970;2023-03-01T06:57:47;-4.00;99.90
52203;DHT22;38173;52.850;6.970;2023-03-01T07:00:13;-4.00;99.90
52203;DHT22;38173;52.850;6.970;2023-03-01T07:02:39;-3.90;99.90
52203;DHT22;38173;52.850;6.970;2023-03-01T07:05:05;-3.80;99.90
52203;DHT22;38173;52.850;6.970;2023-03-01T07:07:30;-3.80;99.90
52203;DHT22;38173;52.850;6.970;2023-03-01T07:09:56;-3.70;99.90
52203;DHT22;38173;52.850;6.970;2023-03-01T07:12:22;-3.60;99.90
52203;DHT22;38173;52.850;6.970;2023-03-01T07:14:47;-3.50;99.90
52203;DHT22;38173;52.850;6.970;2023-03-01T07:17:13;-3.40;99.90
52203;DHT22;38173;52.850;6.970;2023-03-01T07:19:39;-3.30;99.90
52203;DHT22;38173;52.850;6.970;2023-03-01T07:22:05;-3.30;99.90
52203;DHT22;38173;52.850;6.970;2023-03-01T07:24:34;-3.20;99.90
52203;DHT22;38173;52.850;6.970;2023-03-01T07:27:00;-3.10;99.90
52203;DHT22;38173;52.850;6.970;2023-03-01T07:29:26;-3.00;99.90
52203;DHT22;38173;52.850;6.970;2023-03-01T07:31:52;-2.90;99.90
52203;DHT22;38173;52.850;6.970;2023-03-01T07:34:18;-2.80;99.90
52203;DHT22;38173;52.850;6.970;2023-03-01T07:36:44;-2.70;99.90
52203;DHT22;38173;52.850;6.970;2023-03-01T07:39:10;-2.70;99.90
52203;DHT22;38173;52.850;6.970;2023-03-01T07:41:36;-2.60;99.90
52203;DHT22;38173;52.850;6.970;2023-03-01T07:44:02;-2.40;99.90
52203;DHT22;38173;52.850;6.970;2023-03-01T07:46:28;-2.30;99.90
52203;DHT22;38173;52.850;6.970;2023-03-01T07:48:54;-2.20;99.90
52203;DHT22;38173;52.850;6.970;2023-03-01T07:51:20;-2.00;99.90
52203;DHT22;38173;52.850;6.970;2023-03-01T07:53:46;-1.90;99.90
52203;DHT22;38173;52.850;6.970;2023-03-01T07:56:13;-1.70;99.90
52203;DHT22;38173;52.850;6.970;2023-03-01T07:58:39;-1.60;99.90
52203;DHT22;38173;52.850;6.970;2023-03-01T08:01:06;-1.40;99.90
52203;DHT22;38173;52.850;6.970;2023-03-01T08:03:33;-1.30;99.90
52203;DHT22;38173;52.850;6.970;2023-03-01T08:06:02;-1.20;99.90
52203;DHT22;38173;52.850;6.970;2023-03-01T08:08:28;-1.10;99.90
52203;DHT22;38173;52.850;6.970;2023-03-01T08:10:57;-1.00;99.90
52203;DHT22;38173;52.850;6.970;2023-03-01T08:13:24;-0.90;99.90
52203;DHT22;38173;52.850;6.970;2023-03-01T08:15:50;-0.80;99.90
52203;DHT22;38173;52.850;6.970;2023-03-01T08:18:16;-0.70;99.90
52203;DHT22;38173;52.850;6.970;2023-03-01T08:20:42;-0.60;99.90
52203;DHT22;38173;52.850;6.970;2023-03-01T08:23:08;-0.60;99.90
52203;DHT22;38173;52.850;6.970;2023-03-01T08:25:34;-0.50;99.90
52203;DHT22;38173;52.850;6.970;2023-03-01T08:27:59;-0.40;99.90
52203;DHT22;38173;52.850;6.970;2023-03-01T08:30:25;-0.30;99.90
52203;DHT22;38173;52.850;6.970;2023-03-01T08:32:51;-0.20;99.90
52203;DHT22;38173;52.850;6.970;2023-03-01T08:35:17;-0.10;99.90
52203;DHT22;38173;52.850;6.970;2023-03-01T08:37:43;0.00;99.90
52203;DHT22;38173;52.850;6.970;2023-03-01T08:40:09;0.10;99.90
52203;DHT22;38173;52.850;6.970;2023-03-01T08:42:35;0.20;99.90
52203;DHT22;38173;52.850;6.970;2023-03-01T08:45:02;0.20;99.90
52203;DHT22;38173;52.850;6.970;2023-03-01T08:47:28;0.30;99.90
52203;DHT22;38173;52.850;6.970;2023-03-01T08:49:53;0.40;99.90
52203;DHT22;38173;52.850;6.970;2023-03-01T08:52:19;0.60;99.90
52203;DHT22;38173;52.850;6.970;2023-03-01T08:54:46;0.70;99.90
52203;DHT22;38173;52.850;6.970;2023-03-01T08:57:12;0.80;99.90
52203;DHT22;38173;52.850;6.970;2023-03-01T08:59:38;0.90;99.90
52203;DHT22;38173;52.850;6.970;2023-03-01T09:02:10;1.00;99.90
52203;DHT22;38173;52.850;6.970;2023-03-01T09:04:39;1.10;99.90
52203;DHT22;38173;52.850;6.970;2023-03-01T09:07:05;1.30;99.90
52203;DHT22;38173;52.850;6.970;2023-03-01T09:09:31;1.50;99.90
52203;DHT22;38173;52.850;6.970;2023-03-01T09:11:57;1.60;99.90
52203;DHT22;38173;52.850;6.970;2023-03-01T09:14:22;1.70;99.90
52203;DHT22;38173;52.850;6.970;2023-03-01T09:16:48;1.90;99.90
52203;DHT22;38173;52.850;6.970;2023-03-01T09:19:14;2.00;99.90
52203;DHT22;38173;52.850;6.970;2023-03-01T09:21:40;2.20;99.90
52203;DHT22;38173;52.850;6.970;2023-03-01T09:24:06;2.30;99.90
52203;DHT22;38173;52.850;6.970;2023-03-01T09:26:32;2.40;99.90
52203;DHT22;38173;52.850;6.970;2023-03-01T09:28:58;2.60;99.90
52203;DHT22;38173;52.850;6.970;2023-03-01T09:31:24;2.70;99.90
52203;DHT22;38173;52.850;6.970;2023-03-01T09:33:51;2.90;99.90
52203;DHT22;38173;52.850;6.970;2023-03-01T09:36:19;3.00;99.90
52203;DHT22;38173;52.850;6.970;2023-03-01T09:38:46;3.10;99.90
52203;DHT22;38173;52.850;6.970;2023-03-01T09:46:11;3.60;99.90
52203;DHT22;38173;52.850;6.970;2023-03-01T09:48:43;3.80;99.90
52203;DHT22;38173;52.850;6.970;2023-03-01T09:51:18;4.00;99.90
52203;DHT22;38173;52.850;6.970;2023-03-01T09:53:45;4.20;99.90
52203;DHT22;38173;52.850;6.970;2023-03-01T10:01:25;4.60;99.90
52203;DHT22;38173;52.850;6.970;2023-03-01T10:06:32;4.70;99.90
52203;DHT22;38173;52.850;6.970;2023-03-01T10:09:00;4.90;99.90
52203;DHT22;38173;52.850;6.970;2023-03-01T10:11:31;5.00;99.90
52203;DHT22;38173;52.850;6.970;2023-03-01T10:19:10;5.30;99.90
52203;DHT22;38173;52.850;6.970;2023-03-01T10:21:38;5.40;99.90
52203;DHT22;38173;52.850;6.970;2023-03-01T10:24:16;5.50;99.90
52203;DHT22;38173;52.850;6.970;2023-03-01T10:27:29;5.60;99.90
52203;DHT22;38173;52.850;6.970;2023-03-01T10:29:41;5.60;99.90
52203;DHT22;38173;52.850;6.970;2023-03-01T10:32:10;5.50;99.90
52203;DHT22;38173;52.850;6.970;2023-03-01T10:34:36;5.50;99.90
52203;DHT22;38173;52.850;6.970;2023-03-01T10:37:12;5.50;99.90
52203;DHT22;38173;52.850;6.970;2023-03-01T10:40:24;5.70;99.90
52203;DHT22;38173;52.850;6.970;2023-03-01T10:42:29;5.80;99.90
52203;DHT22;38173;52.850;6.970;2023-03-01T10:44:55;5.80;99.90
52203;DHT22;38173;52.850;6.970;2023-03-01T10:47:23;5.90;99.90
52203;DHT22;38173;52.850;6.970;2023-03-01T10:49:53;5.90;99.90
52203;DHT22;38173;52.850;6.970;2023-03-01T10:52:20;5.90;99.90
52203;DHT22;38173;52.850;6.970;2023-03-01T10:54:53;6.10;99.90
52203;DHT22;38173;52.850;6.970;2023-03-01T10:57:35;6.20;99.90
52203;DHT22;38173;52.850;6.970;2023-03-01T11:00:24;6.40;99.90
52203;DHT22;38173;52.850;6.970;2023-03-01T11:03:31;6.80;99.90
52203;DHT22;38173;52.850;6.970;2023-03-01T11:05:37;7.10;99.90
52203;DHT22;38173;52.850;6.970;2023-03-01T11:08:14;7.40;99.90
52203;DHT22;38173;52.850;6.970;2023-03-01T11:10:40;7.70;99.90
52203;DHT22;38173;52.850;6.970;2023-03-01T11:13:16;7.90;99.90
52203;DHT22;38173;52.850;6.970;2023-03-01T11:15:43;8.20;99.90
52203;DHT22;38173;52.850;6.970;2023-03-01T11:18:22;8.40;99.90
52203;DHT22;38173;52.850;6.970;2023-03-01T11:20:48;8.60;99.30
52203;DHT22;38173;52.850;6.970;2023-03-01T11:23:14;8.60;95.80
52203;DHT22;38173;52.850;6.970;2023-03-01T11:25:54;8.70;97.60
52203;DHT22;38173;52.850;6.970;2023-03-01T11:28:21;8.90;97.60
52203;DHT22;38173;52.850;6.970;2023-03-01T11:33:19;8.60;91.60
52203;DHT22;38173;52.850;6.970;2023-03-01T11:35:53;8.20;92.20
52203;DHT22;38173;52.850;6.970;2023-03-01T11:38:23;8.10;97.80
52203;DHT22;38173;52.850;6.970;2023-03-01T11:40:54;8.00;97.80
52203;DHT22;38173;52.850;6.970;2023-03-01T11:51:02;7.30;99.90
52203;DHT22;38173;52.850;6.970;2023-03-01T11:53:34;7.30;99.90
52203;DHT22;38173;52.850;6.970;2023-03-01T11:56:16;7.60;99.90
52203;DHT22;38173;52.850;6.970;2023-03-01T12:01:21;8.50;96.50
52203;DHT22;38173;52.850;6.970;2023-03-01T12:06:35;8.20;92.90
52203;DHT22;38173;52.850;6.970;2023-03-01T12:14:27;7.00;98.40
52203;DHT22;38173;52.850;6.970;2023-03-01T12:17:02;6.80;99.50
52203;DHT22;38173;52.850;6.970;2023-03-01T12:22:21;6.60;99.90
52203;DHT22;38173;52.850;6.970;2023-03-01T12:27:29;6.60;99.70
52203;DHT22;38173;52.850;6.970;2023-03-01T12:37:50;6.80;99.90
52203;DHT22;38173;52.850;6.970;2023-03-01T12:40:32;7.00;99.90
52203;DHT22;38173;52.850;6.970;2023-03-01T12:48:23;7.20;99.90
52203;DHT22;38173;52.850;6.970;2023-03-01T12:50:53;7.30;99.90
52203;DHT22;38173;52.850;6.970;2023-03-01T12:53:27;7.20;98.70
52203;DHT22;38173;52.850;6.970;2023-03-01T12:55:54;7.20;99.90
52203;DHT22;38173;52.850;6.970;2023-03-01T12:58:27;7.10;99.50
52203;DHT22;38173;52.850;6.970;2023-03-01T13:06:29;7.00;99.90
52203;DHT22;38173;52.850;6.970;2023-03-01T13:11:26;7.00;99.90
52203;DHT22;38173;52.850;6.970;2023-03-01T13:13:51;6.90;99.90
52203;DHT22;38173;52.850;6.970;2023-03-01T13:18:45;6.90;99.90
52203;DHT22;38173;52.850;6.970;2023-03-01T13:21:11;6.90;99.90
52203;DHT22;38173;52.850;6.970;2023-03-01T13:23:37;6.90;99.90
52203;DHT22;38173;52.850;6.970;2023-03-01T13:33:56;7.00;99.90
52203;DHT22;38173;52.850;6.970;2023-03-01T13:44:20;7.70;99.90
52203;DHT22;38173;52.850;6.970;2023-03-01T13:46:46;8.20;99.90
52203;DHT22;38173;52.850;6.970;2023-03-01T13:49:14;8.50;99.90
52203;DHT22;38173;52.850;6.970;2023-03-01T13:51:40;8.50;97.40
52203;DHT22;38173;52.850;6.970;2023-03-01T13:54:09;8.40;99.60
52203;DHT22;38173;52.850;6.970;2023-03-01T13:56:37;8.30;96.40
52203;DHT22;38173;52.850;6.970;2023-03-01T13:59:04;8.20;99.10
52203;DHT22;38173;52.850;6.970;2023-03-01T14:01:35;8.00;98.50
52203;DHT22;38173;52.850;6.970;2023-03-01T14:04:02;7.80;99.90
52203;DHT22;38173;52.850;6.970;2023-03-01T14:06:30;7.60;99.90
52203;DHT22;38173;52.850;6.970;2023-03-01T14:21:46;8.30;98.40
52203;DHT22;38173;52.850;6.970;2023-03-01T14:24:20;8.90;99.90
52203;DHT22;38173;52.850;6.970;2023-03-01T14:26:46;8.90;98.30
52203;DHT22;38173;52.850;6.970;2023-03-01T14:32:02;8.40;98.50
52203;DHT22;38173;52.850;6.970;2023-03-01T14:34:33;8.10;99.80
52203;DHT22;38173;52.850;6.970;2023-03-01T14:37:09;8.00;99.60
52203;DHT22;38173;52.850;6.970;2023-03-01T14:39:35;8.30;96.80
52203;DHT22;38173;52.850;6.970;2023-03-01T14:42:00;8.80;97.90
52203;DHT22;38173;52.850;6.970;2023-03-01T14:44:26;9.70;99.00
52203;DHT22;38173;52.850;6.970;2023-03-01T14:46:53;10.60;97.50
52203;DHT22;38173;52.850;6.970;2023-03-01T14:49:20;11.50;96.80
52203;DHT22;38173;52.850;6.970;2023-03-01T14:51:58;12.40;96.00
52203;DHT22;38173;52.850;6.970;2023-03-01T14:54:26;12.80;90.70
52203;DHT22;38173;52.850;6.970;2023-03-01T14:56:54;13.00;88.50
52203;DHT22;38173;52.850;6.970;2023-03-01T14:59:23;13.10;86.00
52203;DHT22;38173;52.850;6.970;2023-03-01T15:01:50;12.90;81.00
52203;DHT22;38173;52.850;6.970;2023-03-01T15:04:16;12.60;77.60
52203;DHT22;38173;52.850;6.970;2023-03-01T15:06:42;12.30;81.60
52203;DHT22;38173;52.850;6.970;2023-03-01T15:09:12;12.00;83.50
52203;DHT22;38173;52.850;6.970;2023-03-01T15:11:39;11.90;83.90
52203;DHT22;38173;52.850;6.970;2023-03-01T15:14:28;11.90;90.30
52203;DHT22;38173;52.850;6.970;2023-03-01T15:16:55;11.90;90.00
52203;DHT22;38173;52.850;6.970;2023-03-01T15:19:20;11.80;85.70
52203;DHT22;38173;52.850;6.970;2023-03-01T15:21:49;11.80;91.70
52203;DHT22;38173;52.850;6.970;2023-03-01T15:24:17;11.90;90.10
52203;DHT22;38173;52.850;6.970;2023-03-01T15:26:49;12.10;90.20
52203;DHT22;38173;52.850;6.970;2023-03-01T15:29:20;12.50;90.90
52203;DHT22;38173;52.850;6.970;2023-03-01T15:32:03;12.60;84.90
52203;DHT22;38173;52.850;6.970;2023-03-01T15:34:36;12.60;87.00
52203;DHT22;38173;52.850;6.970;2023-03-01T15:37:05;12.40;82.20
52203;DHT22;38173;52.850;6.970;2023-03-01T15:39:37;12.10;86.60
52203;DHT22;38173;52.850;6.970;2023-03-01T15:42:06;12.00;84.70
52203;DHT22;38173;52.850;6.970;2023-03-01T15:44:34;12.10;84.70
52203;DHT22;38173;52.850;6.970;2023-03-01T15:47:01;12.40;81.60
52203;DHT22;38173;52.850;6.970;2023-03-01T15:52:02;12.60;85.40
52203;DHT22;38173;52.850;6.970;2023-03-01T15:54:28;12.60;90.10
52203;DHT22;38173;52.850;6.970;2023-03-01T15:56:54;12.40;84.70
52203;DHT22;38173;52.850;6.970;2023-03-01T15:59:20;12.20;87.00
52203;DHT22;38173;52.850;6.970;2023-03-01T16:01:47;12.10;90.10
52203;DHT22;38173;52.850;6.970;2023-03-01T16:04:14;12.00;86.50
52203;DHT22;38173;52.850;6.970;2023-03-01T16:06:50;12.00;90.40
52203;DHT22;38173;52.850;6.970;2023-03-01T16:09:20;11.80;85.00
52203;DHT22;38173;52.850;6.970;2023-03-01T16:11:47;11.60;89.30
52203;DHT22;38173;52.850;6.970;2023-03-01T16:14:14;11.60;89.20
52203;DHT22;38173;52.850;6.970;2023-03-01T16:16:42;11.60;87.20
52203;DHT22;38173;52.850;6.970;2023-03-01T16:19:08;11.70;90.00
52203;DHT22;38173;52.850;6.970;2023-03-01T16:21:34;11.80;88.30
52203;DHT22;38173;52.850;6.970;2023-03-01T16:24:00;11.60;88.50
52203;DHT22;38173;52.850;6.970;2023-03-01T16:26:25;11.50;87.80
52203;DHT22;38173;52.850;6.970;2023-03-01T16:28:58;11.60;91.20
52203;DHT22;38173;52.850;6.970;2023-03-01T16:31:23;11.40;90.10
52203;DHT22;38173;52.850;6.970;2023-03-01T16:33:55;10.90;85.60
52203;DHT22;38173;52.850;6.970;2023-03-01T16:36:22;10.40;90.20
52203;DHT22;38173;52.850;6.970;2023-03-01T16:38:51;9.80;90.00
52203;DHT22;38173;52.850;6.970;2023-03-01T16:41:18;9.10;90.90
52203;DHT22;38173;52.850;6.970;2023-03-01T16:43:44;8.60;90.50
52203;DHT22;38173;52.850;6.970;2023-03-01T16:46:16;8.20;92.00
52203;DHT22;38173;52.850;6.970;2023-03-01T16:48:43;7.80;93.40
52203;DHT22;38173;52.850;6.970;2023-03-01T16:51:10;7.50;95.50
52203;DHT22;38173;52.850;6.970;2023-03-01T16:53:37;7.20;96.10
52203;DHT22;38173;52.850;6.970;2023-03-01T16:56:04;6.90;97.30
52203;DHT22;38173;52.850;6.970;2023-03-01T16:58:30;6.70;98.40
52203;DHT22;38173;52.850;6.970;2023-03-01T17:00:56;6.50;99.80
52203;DHT22;38173;52.850;6.970;2023-03-01T17:03:23;6.30;99.90
52203;DHT22;38173;52.850;6.970;2023-03-01T17:05:50;6.20;99.90
52203;DHT22;38173;52.850;6.970;2023-03-01T17:08:16;6.00;99.90
52203;DHT22;38173;52.850;6.970;2023-03-01T17:10:42;5.90;99.90
52203;DHT22;38173;52.850;6.970;2023-03-01T17:13:08;5.80;99.90
52203;DHT22;38173;52.850;6.970;2023-03-01T17:15:39;5.70;99.90
52203;DHT22;38173;52.850;6.970;2023-03-01T17:18:05;5.50;99.90
52203;DHT22;38173;52.850;6.970;2023-03-01T17:20:31;5.40;99.90
52203;DHT22;38173;52.850;6.970;2023-03-01T17:22:57;5.40;99.90
52203;DHT22;38173;52.850;6.970;2023-03-01T17:25:23;5.20;99.90
52203;DHT22;38173;52.850;6.970;2023-03-01T17:27:50;5.10;99.90
52203;DHT22;38173;52.850;6.970;2023-03-01T17:30:16;5.00;99.90
52203;DHT22;38173;52.850;6.970;2023-03-01T17:32:42;4.90;99.90
52203;DHT22;38173;52.850;6.970;2023-03-01T17:35:08;4.80;99.90